createdAt,value
2022-12-10T00:02:34.758Z,91.78
2022-12-10T00:05:37.542Z,92.07
2022-12-10T00:08:40.208Z,91.87
2022-12-10T00:11:44.149Z,91.86
2022-12-10T00:14:46.765Z,91.80
2022-12-10T00:17:49.329Z,91.75
2022-12-10T00:20:51.904Z,91.73
2022-12-10T00:23:54.666Z,91.32
2022-12-10T00:26:58.622Z,91.79
2022-12-10T00:30:01.215Z,91.66
2022-12-10T00:33:03.862Z,91.63
2022-12-10T00:36:07.458Z,91.68
2022-12-10T00:39:10.032Z,91.28
2022-12-10T00:42:13.989Z,91.65
2022-12-10T00:45:16.659Z,91.04
2022-12-10T00:48:19.245Z,91.61
2022-12-10T00:51:22.549Z,91.15
2022-12-10T00:54:25.165Z,91.77
2022-12-10T00:57:29.113Z,91.46
2022-12-10T01:00:31.756Z,91.59
2022-12-10T01:03:34.376Z,91.39
2022-12-10T01:06:38.006Z,91.47
2022-12-10T01:09:40.633Z,91.55
2022-12-10T01:12:45.874Z,91.28
2022-12-10T01:15:48.477Z,91.26
2022-12-10T01:18:51.085Z,91.06
2022-12-10T01:21:53.819Z,91.11
2022-12-10T01:24:56.430Z,91.04
2022-12-10T01:28:00.370Z,91.05
2022-12-10T01:31:03.801Z,91.23
2022-12-10T01:34:07.482Z,90.97
2022-12-10T01:37:10.088Z,90.86
2022-12-10T01:40:13.485Z,90.82
2022-12-10T01:43:17.465Z,91.03
2022-12-10T01:46:20.060Z,90.96
2022-12-10T01:49:23.459Z,91.09
2022-12-10T01:52:26.024Z,91.28
2022-12-10T01:55:44.263Z,90.97
2022-12-10T01:58:48.912Z,91.00
2022-12-10T02:01:54.100Z,91.05
2022-12-10T02:05:04.141Z,90.89
2022-12-10T02:08:08.509Z,91.01
2022-12-10T02:11:17.103Z,90.59
2022-12-10T02:14:24.481Z,91.27
2022-12-10T02:17:28.429Z,91.18
2022-12-10T02:20:33.785Z,91.18
2022-12-10T02:23:37.930Z,91.32
2022-12-10T02:26:44.959Z,91.34
2022-12-10T02:29:48.990Z,91.44
2022-12-10T02:32:51.561Z,91.66
2022-12-10T02:35:54.149Z,91.19
2022-12-10T02:38:56.841Z,91.35
2022-12-10T02:41:59.566Z,91.51
2022-12-10T02:45:03.499Z,91.51
2022-12-10T02:48:06.483Z,91.77
2022-12-10T02:51:09.163Z,91.42
2022-12-10T02:54:38.473Z,91.74
2022-12-10T02:57:44.363Z,91.85
2022-12-10T03:00:52.469Z,91.92
2022-12-10T03:03:56.718Z,91.73
2022-12-10T03:07:00.329Z,91.81
2022-12-10T03:10:04.946Z,91.65
2022-12-10T03:13:09.117Z,92.15
2022-12-10T03:16:13.126Z,92.34
2022-12-10T03:19:17.240Z,92.14
2022-12-10T03:22:20.347Z,92.50
2022-12-10T03:25:25.076Z,92.71
2022-12-10T03:28:27.682Z,92.26
2022-12-10T03:31:31.640Z,92.67
2022-12-10T03:34:34.276Z,92.19
2022-12-10T03:37:36.843Z,92.66
2022-12-10T03:40:39.400Z,92.85
2022-12-10T03:43:55.104Z,92.83
2022-12-10T03:46:59.069Z,92.75
2022-12-10T03:50:01.625Z,92.56
2022-12-10T03:53:04.222Z,92.78
2022-12-10T03:56:06.836Z,92.85
2022-12-10T03:59:09.405Z,92.96
2022-12-10T04:02:13.331Z,92.72
2022-12-10T04:05:16.669Z,92.88
2022-12-10T04:08:19.388Z,93.03
2022-12-10T04:11:22.028Z,93.15
2022-12-10T04:14:42.112Z,93.09
2022-12-10T04:17:46.093Z,93.18
2022-12-10T04:21:06.245Z,93.47
2022-12-10T04:24:27.516Z,93.60
2022-12-10T04:27:30.851Z,93.45
2022-12-10T04:30:33.563Z,93.56
2022-12-10T04:33:37.545Z,93.29
2022-12-10T04:36:40.151Z,94.02
2022-12-10T04:39:42.733Z,94.16
2022-12-10T04:42:45.342Z,94.00
2022-12-10T04:45:48.168Z,94.11
2022-12-10T04:48:52.155Z,93.78
2022-12-10T04:51:56.220Z,94.35
2022-12-10T04:54:58.853Z,94.10
2022-12-10T04:58:01.470Z,94.26
2022-12-10T05:01:04.619Z,93.81
2022-12-10T05:04:09.767Z,94.51
2022-12-10T05:07:12.393Z,94.22
2022-12-10T05:10:14.936Z,94.28
2022-12-10T05:13:17.497Z,94.46
2022-12-10T05:16:20.841Z,94.48
2022-12-10T05:19:24.813Z,94.75
2022-12-10T05:22:45.217Z,94.53
2022-12-10T05:25:54.492Z,94.70
2022-12-10T05:28:57.781Z,94.62
2022-12-10T05:32:00.376Z,94.02
2022-12-10T05:35:04.549Z,94.37
2022-12-10T05:38:07.145Z,94.21
2022-12-10T05:41:12.654Z,94.31
2022-12-10T05:44:15.233Z,94.29
2022-12-10T05:47:17.800Z,94.30
2022-12-10T05:50:21.708Z,94.46
2022-12-10T05:53:24.289Z,94.48
2022-12-10T05:56:27.228Z,94.45
2022-12-10T05:59:29.795Z,94.90
2022-12-10T06:02:34.387Z,94.91
2022-12-10T06:05:39.570Z,94.63
2022-12-10T06:08:42.343Z,94.50
2022-12-10T06:11:45.033Z,94.43
2022-12-10T06:14:48.358Z,94.49
2022-12-10T06:17:50.967Z,95.08
2022-12-10T06:20:54.883Z,95.12
2022-12-10T06:23:57.601Z,95.28
2022-12-10T06:27:00.226Z,95.39
2022-12-10T06:30:02.792Z,94.85
2022-12-10T06:33:05.404Z,95.00
2022-12-10T06:36:10.627Z,95.49
2022-12-10T06:39:13.604Z,95.29
2022-12-10T06:42:16.288Z,95.67
2022-12-10T06:45:19.048Z,95.29
2022-12-10T06:48:21.663Z,95.39
2022-12-10T06:51:25.571Z,95.51
2022-12-10T06:54:28.408Z,95.31
2022-12-10T06:57:31.045Z,95.58
2022-12-10T07:00:33.713Z,95.99
2022-12-10T07:03:36.484Z,95.71
2022-12-10T07:06:40.382Z,95.89
2022-12-10T07:09:43.082Z,95.89
2022-12-10T07:12:45.676Z,95.78
2022-12-10T07:15:48.338Z,95.83
2022-12-10T07:18:52.618Z,96.08
2022-12-10T07:21:56.843Z,96.36
2022-12-10T07:24:59.451Z,95.97
2022-12-10T07:28:02.072Z,96.24
2022-12-10T07:31:04.761Z,95.91
2022-12-10T07:34:07.337Z,96.29
2022-12-10T07:37:11.378Z,96.39
2022-12-10T07:40:14.134Z,96.12
2022-12-10T07:43:16.705Z,96.24
2022-12-10T07:46:20.387Z,96.20
2022-12-10T07:49:23.057Z,96.21
2022-12-10T07:52:27.013Z,96.15
2022-12-10T07:55:29.565Z,96.16
2022-12-10T07:58:32.182Z,96.11
2022-12-10T08:01:34.768Z,96.00
2022-12-10T08:04:38.530Z,95.67
2022-12-10T08:07:42.857Z,96.17
2022-12-10T08:10:45.453Z,96.02
2022-12-10T08:13:53.426Z,95.88
2022-12-10T08:16:59.065Z,96.25
2022-12-10T08:20:01.679Z,96.20
2022-12-10T08:23:05.638Z,96.38
2022-12-10T08:26:08.444Z,96.18
2022-12-10T08:29:11.014Z,96.35
2022-12-10T08:32:13.663Z,96.61
2022-12-10T08:35:16.471Z,96.72
2022-12-10T08:38:20.417Z,96.75
2022-12-10T08:41:23.788Z,96.66
2022-12-10T08:44:26.332Z,96.60
2022-12-10T08:47:28.950Z,97.06
2022-12-10T08:50:31.524Z,96.55
2022-12-10T08:53:35.632Z,96.58
2022-12-10T08:56:40.166Z,96.49
2022-12-10T08:59:42.793Z,96.93
2022-12-10T09:02:45.400Z,96.73
2022-12-10T09:05:48.504Z,96.66
2022-12-10T09:08:52.659Z,96.86
2022-12-10T09:11:55.216Z,97.27
2022-12-10T09:14:57.776Z,96.98
2022-12-10T09:18:00.326Z,97.37
2022-12-10T09:21:06.885Z,97.32
2022-12-10T09:24:10.929Z,96.87
2022-12-10T09:27:13.533Z,97.06
2022-12-10T09:30:18.169Z,97.31
2022-12-10T09:33:20.769Z,97.35
2022-12-10T09:36:25.477Z,97.29
2022-12-10T09:39:32.661Z,97.30
2022-12-10T09:42:40.246Z,97.28
2022-12-10T09:45:46.299Z,97.31
2022-12-10T09:48:55.392Z,97.45
2022-12-10T09:51:59.682Z,97.50
2022-12-10T09:55:05.063Z,97.87
2022-12-10T09:58:08.299Z,97.28
2022-12-10T10:01:11.609Z,97.69
2022-12-10T10:04:14.630Z,97.51
2022-12-10T10:07:21.126Z,97.63
2022-12-10T10:10:27.550Z,97.71
2022-12-10T10:13:33.621Z,97.59
2022-12-10T10:16:36.997Z,97.45
2022-12-10T10:19:40.486Z,97.92
2022-12-10T10:22:43.075Z,97.93
2022-12-10T10:25:47.114Z,98.19
2022-12-10T10:28:50.019Z,97.84
2022-12-10T10:32:13.160Z,98.01
2022-12-10T10:35:23.042Z,97.91
2022-12-10T10:38:26.337Z,97.97
2022-12-10T10:41:30.493Z,98.09
2022-12-10T10:44:36.616Z,97.83
2022-12-10T10:47:39.195Z,98.01
2022-12-10T10:50:43.474Z,98.11
2022-12-10T10:53:46.541Z,98.17
2022-12-10T10:56:50.434Z,97.94
2022-12-10T10:59:53.741Z,98.12
2022-12-10T11:02:56.305Z,97.90
2022-12-10T11:05:59.530Z,98.31
2022-12-10T11:09:02.150Z,98.58
2022-12-10T11:12:07.410Z,98.39
2022-12-10T11:15:32.441Z,98.47
2022-12-10T11:18:36.344Z,98.38
2022-12-10T11:21:39.171Z,98.45
2022-12-10T11:24:41.757Z,98.58
2022-12-10T11:27:51.137Z,98.58
2022-12-10T11:30:56.714Z,98.23
2022-12-10T11:34:05.168Z,98.28
2022-12-10T11:37:09.367Z,98.71
2022-12-10T11:40:34.760Z,98.39
2022-12-10T11:43:47.195Z,98.48
2022-12-10T11:47:11.643Z,98.50
2022-12-10T11:50:17.574Z,98.54
2022-12-10T11:53:45.380Z,98.96
2022-12-10T11:56:51.914Z,98.24
2022-12-10T12:00:06.349Z,98.49
2022-12-10T12:03:29.766Z,98.48
2022-12-10T12:06:51.579Z,98.39
2022-12-10T12:10:19.513Z,98.55
2022-12-10T12:13:24.587Z,98.61
2022-12-10T12:16:31.647Z,98.45
2022-12-10T12:19:36.291Z,98.40
2022-12-10T12:22:40.469Z,98.71
2022-12-10T12:25:46.424Z,98.40
2022-12-10T12:28:50.032Z,98.15
2022-12-10T12:31:58.253Z,98.49
2022-12-10T12:35:01.980Z,98.98
2022-12-10T12:38:08.596Z,98.36
2022-12-10T12:41:14.915Z,98.54
2022-12-10T12:44:20.920Z,98.51
2022-12-10T12:47:31.274Z,98.73
2022-12-10T12:50:39.336Z,98.77
2022-12-10T12:53:41.977Z,98.89
2022-12-10T12:56:55.205Z,98.64
2022-12-10T12:59:59.890Z,99.00
2022-12-10T13:03:09.666Z,99.05
2022-12-10T13:06:20.186Z,99.05
2022-12-10T13:09:27.838Z,99.04
2022-12-10T13:12:31.513Z,98.99
2022-12-10T13:15:36.040Z,99.20
2022-12-10T13:18:40.757Z,98.75
2022-12-10T13:22:02.473Z,99.32
2022-12-10T13:25:13.720Z,99.25
2022-12-10T13:28:23.911Z,98.95
2022-12-10T13:31:37.486Z,99.17
2022-12-10T13:34:41.530Z,99.07
2022-12-10T13:37:56.905Z,99.48
2022-12-10T13:41:21.884Z,99.13
2022-12-10T13:44:27.440Z,98.83
2022-12-10T13:47:34.052Z,99.72
2022-12-10T13:50:38.886Z,99.45
2022-12-10T13:53:45.815Z,99.41
2022-12-10T13:56:50.813Z,99.52
2022-12-10T13:59:58.553Z,99.55
2022-12-10T14:03:16.835Z,100.00
2022-12-10T14:06:20.879Z,99.60
2022-12-10T14:09:25.721Z,99.52
2022-12-10T14:12:29.793Z,99.62
2022-12-10T14:15:32.444Z,99.62
2022-12-10T14:18:35.014Z,99.95
2022-12-10T14:21:40.468Z,99.60
2022-12-10T14:24:44.282Z,99.77
2022-12-10T14:27:48.515Z,99.52
2022-12-10T14:30:51.152Z,99.43
2022-12-10T14:33:53.752Z,99.44
2022-12-10T14:36:58.462Z,99.51
2022-12-10T14:40:01.090Z,99.48
2022-12-10T14:43:05.385Z,99.55
2022-12-10T14:46:23.019Z,99.69
2022-12-10T14:49:27.384Z,100.00
2022-12-10T14:52:36.344Z,99.58
2022-12-10T14:55:38.946Z,99.63
2022-12-10T14:58:43.229Z,99.65
2022-12-10T15:01:47.472Z,99.63
2022-12-10T15:04:50.747Z,99.36
2022-12-10T15:07:56.050Z,99.82
2022-12-10T15:10:59.737Z,98.95
2022-12-10T15:14:03.199Z,99.60
2022-12-10T15:17:05.794Z,99.52
2022-12-10T15:20:22.213Z,99.21
2022-12-10T15:23:27.969Z,99.28
2022-12-10T15:26:30.778Z,99.00
2022-12-10T15:29:36.709Z,98.78
2022-12-10T15:32:39.293Z,99.44
2022-12-10T15:35:41.887Z,98.78
2022-12-10T15:38:46.306Z,99.30
2022-12-10T15:41:49.381Z,99.05
2022-12-10T15:44:51.951Z,99.49
2022-12-10T15:47:55.111Z,98.88
2022-12-10T15:50:58.737Z,98.76
2022-12-10T15:54:02.677Z,99.39
2022-12-10T15:57:13.167Z,99.22
2022-12-10T16:00:21.004Z,99.57
2022-12-10T16:03:24.078Z,99.34
2022-12-10T16:06:26.693Z,99.25
2022-12-10T16:09:30.642Z,98.45
2022-12-10T16:12:37.232Z,99.16
2022-12-10T16:15:45.045Z,99.19
2022-12-10T16:18:47.791Z,98.70
2022-12-10T16:21:50.364Z,99.12
2022-12-10T16:24:54.303Z,98.83
2022-12-10T16:27:56.941Z,99.44
2022-12-10T16:31:00.769Z,99.03
2022-12-10T16:34:03.395Z,98.99
2022-12-10T16:37:06.182Z,99.22
2022-12-10T16:40:11.240Z,99.35
2022-12-10T16:43:14.641Z,99.40
2022-12-10T16:46:17.315Z,99.16
2022-12-10T16:49:19.974Z,98.77
2022-12-10T16:52:22.679Z,99.60
2022-12-10T16:55:27.322Z,98.83
2022-12-10T16:58:29.926Z,98.83
2022-12-10T17:01:32.814Z,98.98
2022-12-10T17:04:35.434Z,99.26
2022-12-10T17:07:38.031Z,98.87
2022-12-10T17:10:59.729Z,98.76
2022-12-10T17:14:02.421Z,98.55
2022-12-10T17:17:05.042Z,98.85
2022-12-10T17:20:21.119Z,99.13
2022-12-10T17:23:24.148Z,99.02
2022-12-10T17:26:29.571Z,99.07
2022-12-10T17:29:33.640Z,99.21
2022-12-10T17:32:36.219Z,98.66
2022-12-10T17:35:38.815Z,99.29
2022-12-10T17:38:41.418Z,99.02
2022-12-10T17:41:45.474Z,99.96
2022-12-10T17:44:48.063Z,99.27
2022-12-10T17:47:50.665Z,98.76
2022-12-10T17:50:53.281Z,98.76
2022-12-10T17:53:55.915Z,99.25
2022-12-10T17:57:01.026Z,99.65
2022-12-10T18:00:03.854Z,99.22
2022-12-10T18:03:06.866Z,99.29
2022-12-10T18:06:12.394Z,99.49
2022-12-10T18:09:15.025Z,99.13
2022-12-10T18:12:18.930Z,98.84
2022-12-10T18:15:21.676Z,98.58
2022-12-10T18:18:24.288Z,98.75
2022-12-10T18:21:27.212Z,99.00
2022-12-10T18:24:30.114Z,98.35
2022-12-10T18:27:34.037Z,98.14
2022-12-10T18:30:36.656Z,98.24
2022-12-10T18:33:40.242Z,98.67
2022-12-10T18:36:43.918Z,99.18
2022-12-10T18:39:46.529Z,98.58
2022-12-10T18:42:51.416Z,98.66
2022-12-10T18:45:54.059Z,98.93
2022-12-10T18:48:56.839Z,98.81
2022-12-10T18:51:59.400Z,99.13
2022-12-10T18:55:02.051Z,99.01
2022-12-10T18:58:07.121Z,99.51
2022-12-10T19:01:10.240Z,99.49
2022-12-10T19:04:13.198Z,99.22
2022-12-10T19:07:15.796Z,98.91
2022-12-10T19:10:20.317Z,99.21
2022-12-10T19:13:24.291Z,99.27
2022-12-10T19:16:27.210Z,99.08
2022-12-10T19:19:29.860Z,99.33
2022-12-10T19:22:32.842Z,98.72
2022-12-10T19:25:36.078Z,99.17
2022-12-10T19:28:40.045Z,98.96
2022-12-10T19:31:42.788Z,99.15
2022-12-10T19:34:45.366Z,99.13
2022-12-10T19:37:50.625Z,98.55
2022-12-10T19:40:56.958Z,98.66
2022-12-10T19:44:00.896Z,98.57
2022-12-10T19:47:03.516Z,98.61
2022-12-10T19:50:06.918Z,98.60
2022-12-10T19:53:10.123Z,98.51
2022-12-10T19:56:19.256Z,98.04
2022-12-10T19:59:23.230Z,97.98
2022-12-10T20:02:25.811Z,98.51
2022-12-10T20:05:28.483Z,98.85
2022-12-10T20:08:32.178Z,97.64
2022-12-10T20:11:35.141Z,98.04
2022-12-10T20:14:39.061Z,97.95
2022-12-10T20:17:41.629Z,97.85
2022-12-10T20:20:44.215Z,98.16
2022-12-10T20:23:46.981Z,97.86
2022-12-10T20:26:49.790Z,97.32
2022-12-10T20:29:53.920Z,97.77
2022-12-10T20:32:56.616Z,97.97
2022-12-10T20:35:59.309Z,97.42
2022-12-10T20:39:01.896Z,97.20
2022-12-10T20:42:05.551Z,97.94
2022-12-10T20:45:10.186Z,97.05
2022-12-10T20:48:12.902Z,97.63
2022-12-10T20:51:15.503Z,97.52
2022-12-10T20:54:18.105Z,97.14
2022-12-10T20:57:20.696Z,97.32
2022-12-10T21:00:24.657Z,97.58
2022-12-10T21:03:27.262Z,97.68
2022-12-10T21:06:30.572Z,96.85
2022-12-10T21:09:33.122Z,97.45
2022-12-10T21:12:35.694Z,97.40
2022-12-10T21:15:39.728Z,97.14
2022-12-10T21:18:42.373Z,97.28
2022-12-10T21:21:45.678Z,97.66
2022-12-10T21:24:48.226Z,97.34
2022-12-10T21:27:50.781Z,97.15
2022-12-10T21:30:54.891Z,97.01
2022-12-10T21:33:57.577Z,96.80
2022-12-10T21:37:00.154Z,96.27
2022-12-10T21:40:02.814Z,97.37
2022-12-10T21:43:17.139Z,96.88
2022-12-10T21:46:21.180Z,97.38
2022-12-10T21:49:23.832Z,96.26
2022-12-10T21:52:26.409Z,96.19
2022-12-10T21:55:30.772Z,96.53
2022-12-10T21:58:33.543Z,96.32
2022-12-10T22:01:37.556Z,96.76
2022-12-10T22:04:40.438Z,96.59
2022-12-10T22:07:43.260Z,96.52
2022-12-10T22:10:50.130Z,96.16
2022-12-10T22:13:54.029Z,96.42
2022-12-10T22:16:58.016Z,96.74
2022-12-10T22:20:00.625Z,95.91
2022-12-10T22:23:03.410Z,96.65
2022-12-10T22:26:08.665Z,96.30
2022-12-10T22:29:11.269Z,96.75
2022-12-10T22:32:15.338Z,96.72
2022-12-10T22:35:18.004Z,96.78
2022-12-10T22:38:20.576Z,96.43
2022-12-10T22:41:23.186Z,96.82
2022-12-10T22:44:25.806Z,96.79
2022-12-10T22:47:29.893Z,96.54
2022-12-10T22:50:32.453Z,96.55
2022-12-10T22:53:35.202Z,96.91
2022-12-10T22:56:38.610Z,96.15
2022-12-10T22:59:41.229Z,96.27
2022-12-10T23:02:45.297Z,96.24
2022-12-10T23:05:47.912Z,95.60
2022-12-10T23:08:50.643Z,95.87
2022-12-10T23:12:10.688Z,95.73
2022-12-10T23:15:13.243Z,95.13
2022-12-10T23:18:17.146Z,95.36
2022-12-10T23:21:21.227Z,95.82
2022-12-10T23:24:23.834Z,95.88
2022-12-10T23:27:26.478Z,95.86
2022-12-10T23:30:29.093Z,95.33
2022-12-10T23:33:33.351Z,95.39
2022-12-10T23:36:35.910Z,95.34
2022-12-10T23:39:38.897Z,95.87
2022-12-10T23:42:41.466Z,95.67
2022-12-10T23:45:44.487Z,95.57
2022-12-10T23:48:48.528Z,95.70
2022-12-10T23:51:51.103Z,95.65
2022-12-10T23:54:53.673Z,95.58
2022-12-10T23:57:56.392Z,95.83
